Detall de PIREP

Printer-friendly versionPDF version

[2017/02/04 08:00:00]
Flight IATA:CT3408
Pilot Number:012
Company ICAO:CAT
Aircraft Type:MD11/E
PAX:216
Aircraft Registration:PAX
Departing Airport: LEBL
Destination Airport: LSGG
Alternate Airport:LSZH
Online: VATSIM
Route:DALIN UN870 MAXIR UN853 KINES
Flight Level:F340
No Slew and time accel
No pause
Crash detect
Detect pilot in Cockpit between each 30 and 45 minutes
08:00 Zero fuel Weight: 370577 Lbs, Fuel Weight: 36823 Lbs
08:00 VATSIM:LEBL 040730Z 24021KT 9999 FEW035 14/10 Q1009 NOSIG
08:00 VATSIM:LSGG 040720Z 27008KT 9999 -RA FEW020 BKN027 05/03 Q1003 TEMPO RA
08:01 Parking Brakes off
08:06 Take-off
08:06 Take off Weight: 406268 Lbs
08:06 Wind: 239º @ 021 Knots Heading: 244º
08:06 POS N41º 17´ 13´´ E002º 05´ 16´´
08:06 Flaps:3 at 199 Knots
08:06 Gear Up: 209 Knots
08:07 Flaps:2 at 210 Knots
08:07 Flaps:3 at 211 Knots
08:07 Flaps:2 at 211 Knots
08:07 Flaps:1 at 212 Knots
08:08 Flaps:0 at 230 Knots
08:17 TOC
08:17 Fuel Weight: 28397 Lb
08:21 Wind:277º@076 Knots Heading: 057º Ground Speed: 539 Knots Altitude 33881 ft
08:36 Wind:260º@067 Knots Heading: 037º Ground Speed: 514 Knots Altitude 33818 ft
08:51 Wind:256º@068 Knots Heading: 349º Ground Speed: 475 Knots Altitude 33848 ft
08:52 TOD
08:52 Fuel Weight: 20090 Lb
09:03 Flaps:1 at 252 Knots
09:04 Flaps:2 at 234 Knots
09:04 Flaps:3 at 233 Knots
09:06 Wind:240º@040 Knots Heading: 251º Ground Speed: 208 Knots Altitude 9379 ft
09:06 Flaps:4 at 224 Knots
09:06 Flaps:3 at 224 Knots
09:06 Flaps:4 at 224 Knots
09:06 Flaps:5 at 222 Knots
09:06 Flaps:6 at 212 Knots
09:08 Flaps:7 at 197 Knots
09:08 Flaps:6 at 197 Knots
09:08 Flaps:7 at 189 Knots
09:08 Flaps:6 at 188 Knots
09:08 Flaps:7 at 188 Knots
09:08 Flaps:6 at 187 Knots
09:08 Flaps:7 at 188 Knots
09:08 Gear Down: 185 Knots
09:09 Flaps:6 at 191 Knots
09:09 Flaps:5 at 209 Knots
09:09 Flaps:6 at 211 Knots
09:09 Flaps:5 at 211 Knots
09:09 Flaps:4 at 223 Knots
09:09 Flaps:5 at 222 Knots
09:10 Flaps:6 at 212 Knots
09:10 Flaps:7 at 191 Knots
09:10 Flaps:6 at 190 Knots
09:10 Flaps:7 at 191 Knots
09:10 Flaps:6 at 191 Knots
09:10 Flaps:7 at 192 Knots
09:12 TouchDown:Rate -358 ft/min Speed: 156 Knots
09:13 VATSIM:LSGG 040850Z 26005KT 9999 -RA FEW008 OVC025 04/03 Q1004 RERA NOSIG
09:13 Land
09:13 Wind:258º@005 Knots
09:13 Heading: 222º
09:13 Flight Duration: 01:07
09:13 Landing Weight: 387250 Lbs
09:13 POS N46º 14´ 13´´ E006º 06´ 25´´
09:14 Parking brakes on
09:14 Block to Block Duration: 01:13
09:14 Final Fuel: 16536 Lbls
09:14 Spent Fuel: 20286 Lbls
09:14 Flight Length: 484 NM
09:14 TOD Land Length: 109 NM

Exportar CSV

Powered by Drupal - Modified by Danger4k